sensor_id;sensor_type;location;lat;lon;timestamp;P1;durP1;ratioP1;P2;durP2;ratioP2
9559;SDS011;4818;50.860;4.648;2023-10-31T00:00:47;31.42;;;13.68;;
9559;SDS011;4818;50.860;4.648;2023-10-31T00:03:54;25.10;;;13.00;;
9559;SDS011;4818;50.860;4.648;2023-10-31T00:06:20;29.95;;;13.93;;
9559;SDS011;4818;50.860;4.648;2023-10-31T00:08:47;28.58;;;13.48;;
9559;SDS011;4818;50.860;4.648;2023-10-31T00:11:13;30.08;;;13.65;;
9559;SDS011;4818;50.860;4.648;2023-10-31T00:13:39;31.85;;;14.40;;
9559;SDS011;4818;50.860;4.648;2023-10-31T00:16:06;27.52;;;12.48;;
9559;SDS011;4818;50.860;4.648;2023-10-31T00:18:32;26.90;;;13.15;;
9559;SDS011;4818;50.860;4.648;2023-10-31T00:21:01;31.75;;;13.55;;
9559;SDS011;4818;50.860;4.648;2023-10-31T00:23:28;29.15;;;12.68;;
9559;SDS011;4818;50.860;4.648;2023-10-31T00:25:55;24.73;;;12.73;;
9559;SDS011;4818;50.860;4.648;2023-10-31T00:28:21;30.63;;;12.57;;
9559;SDS011;4818;50.860;4.648;2023-10-31T00:30:48;25.83;;;12.77;;
9559;SDS011;4818;50.860;4.648;2023-10-31T00:33:14;25.88;;;11.55;;
9559;SDS011;4818;50.860;4.648;2023-10-31T00:35:41;24.35;;;11.75;;
9559;SDS011;4818;50.860;4.648;2023-10-31T00:38:07;23.42;;;10.80;;
9559;SDS011;4818;50.860;4.648;2023-10-31T00:40:33;26.27;;;10.88;;
9559;SDS011;4818;50.860;4.648;2023-10-31T00:42:59;19.08;;;9.23;;
9559;SDS011;4818;50.860;4.648;2023-10-31T00:45:26;17.95;;;8.68;;
9559;SDS011;4818;50.860;4.648;2023-10-31T00:47:52;20.25;;;8.77;;
9559;SDS011;4818;50.860;4.648;2023-10-31T00:50:21;17.67;;;8.55;;
9559;SDS011;4818;50.860;4.648;2023-10-31T00:52:48;21.30;;;9.05;;
9559;SDS011;4818;50.860;4.648;2023-10-31T00:55:17;15.02;;;7.57;;
9559;SDS011;4818;50.860;4.648;2023-10-31T00:57:43;15.57;;;7.78;;
9559;SDS011;4818;50.860;4.648;2023-10-31T01:00:09;18.80;;;7.40;;
9559;SDS011;4818;50.860;4.648;2023-10-31T01:02:36;12.48;;;6.78;;
9559;SDS011;4818;50.860;4.648;2023-10-31T01:05:02;16.33;;;8.68;;
9559;SDS011;4818;50.860;4.648;2023-10-31T01:07:28;15.52;;;7.63;;
9559;SDS011;4818;50.860;4.648;2023-10-31T01:09:54;14.80;;;7.05;;
9559;SDS011;4818;50.860;4.648;2023-10-31T01:12:22;18.23;;;8.40;;
9559;SDS011;4818;50.860;4.648;2023-10-31T01:14:48;12.60;;;7.20;;
9559;SDS011;4818;50.860;4.648;2023-10-31T01:17:14;16.02;;;7.05;;
9559;SDS011;4818;50.860;4.648;2023-10-31T01:19:40;15.88;;;6.50;;
9559;SDS011;4818;50.860;4.648;2023-10-31T01:22:07;15.50;;;6.30;;
9559;SDS011;4818;50.860;4.648;2023-10-31T01:24:33;15.20;;;6.82;;
9559;SDS011;4818;50.860;4.648;2023-10-31T01:26:59;12.52;;;6.75;;
9559;SDS011;4818;50.860;4.648;2023-10-31T01:29:25;11.70;;;5.85;;
9559;SDS011;4818;50.860;4.648;2023-10-31T01:31:52;19.90;;;6.53;;
9559;SDS011;4818;50.860;4.648;2023-10-31T01:34:18;14.07;;;6.55;;
9559;SDS011;4818;50.860;4.648;2023-10-31T01:36:44;13.57;;;6.18;;
9559;SDS011;4818;50.860;4.648;2023-10-31T01:39:11;12.25;;;6.07;;
9559;SDS011;4818;50.860;4.648;2023-10-31T01:41:37;14.10;;;6.35;;
9559;SDS011;4818;50.860;4.648;2023-10-31T01:44:03;16.55;;;6.88;;
9559;SDS011;4818;50.860;4.648;2023-10-31T01:46:30;14.68;;;7.05;;
9559;SDS011;4818;50.860;4.648;2023-10-31T01:48:56;13.15;;;6.30;;
9559;SDS011;4818;50.860;4.648;2023-10-31T01:51:22;10.90;;;6.35;;
9559;SDS011;4818;50.860;4.648;2023-10-31T01:53:49;12.40;;;6.63;;
9559;SDS011;4818;50.860;4.648;2023-10-31T01:56:16;11.00;;;6.65;;
9559;SDS011;4818;50.860;4.648;2023-10-31T01:58:43;8.57;;;5.00;;
9559;SDS011;4818;50.860;4.648;2023-10-31T02:01:09;8.95;;;5.65;;
9559;SDS011;4818;50.860;4.648;2023-10-31T02:03:35;9.32;;;5.15;;
9559;SDS011;4818;50.860;4.648;2023-10-31T02:06:04;9.13;;;4.63;;
9559;SDS011;4818;50.860;4.648;2023-10-31T02:08:33;10.68;;;4.65;;
9559;SDS011;4818;50.860;4.648;2023-10-31T02:11:00;6.53;;;3.85;;
9559;SDS011;4818;50.860;4.648;2023-10-31T02:13:26;7.90;;;4.03;;
9559;SDS011;4818;50.860;4.648;2023-10-31T02:15:53;9.77;;;4.07;;
9559;SDS011;4818;50.860;4.648;2023-10-31T02:18:35;7.72;;;3.55;;
9559;SDS011;4818;50.860;4.648;2023-10-31T02:21:01;4.95;;;3.47;;
9559;SDS011;4818;50.860;4.648;2023-10-31T02:23:28;11.48;;;4.95;;
9559;SDS011;4818;50.860;4.648;2023-10-31T02:25:54;8.70;;;4.15;;
9559;SDS011;4818;50.860;4.648;2023-10-31T02:28:21;8.30;;;4.45;;
9559;SDS011;4818;50.860;4.648;2023-10-31T02:30:47;5.45;;;3.75;;
9559;SDS011;4818;50.860;4.648;2023-10-31T02:33:14;7.10;;;3.63;;
9559;SDS011;4818;50.860;4.648;2023-10-31T02:35:40;7.43;;;4.32;;
9559;SDS011;4818;50.860;4.648;2023-10-31T02:38:06;8.57;;;3.92;;
9559;SDS011;4818;50.860;4.648;2023-10-31T02:40:32;4.70;;;3.65;;
9559;SDS011;4818;50.860;4.648;2023-10-31T02:42:59;9.60;;;4.20;;
9559;SDS011;4818;50.860;4.648;2023-10-31T02:45:26;12.48;;;3.80;;
9559;SDS011;4818;50.860;4.648;2023-10-31T02:47:53;6.32;;;3.78;;
9559;SDS011;4818;50.860;4.648;2023-10-31T02:50:19;7.75;;;3.50;;
9559;SDS011;4818;50.860;4.648;2023-10-31T02:52:45;6.18;;;3.70;;
9559;SDS011;4818;50.860;4.648;2023-10-31T02:55:12;8.68;;;4.00;;
9559;SDS011;4818;50.860;4.648;2023-10-31T02:57:38;5.55;;;4.25;;
9559;SDS011;4818;50.860;4.648;2023-10-31T03:00:04;6.72;;;4.40;;
9559;SDS011;4818;50.860;4.648;2023-10-31T03:02:31;4.97;;;3.45;;
9559;SDS011;4818;50.860;4.648;2023-10-31T03:04:57;7.45;;;3.97;;
9559;SDS011;4818;50.860;4.648;2023-10-31T03:07:23;5.97;;;4.28;;
9559;SDS011;4818;50.860;4.648;2023-10-31T03:09:50;8.73;;;4.18;;
9559;SDS011;4818;50.860;4.648;2023-10-31T03:12:16;8.93;;;4.15;;
9559;SDS011;4818;50.860;4.648;2023-10-31T03:14:42;5.35;;;3.85;;
9559;SDS011;4818;50.860;4.648;2023-10-31T03:17:08;7.55;;;4.70;;
9559;SDS011;4818;50.860;4.648;2023-10-31T03:19:35;6.55;;;4.90;;
9559;SDS011;4818;50.860;4.648;2023-10-31T03:22:01;6.45;;;3.97;;
9559;SDS011;4818;50.860;4.648;2023-10-31T03:24:27;8.32;;;5.10;;
9559;SDS011;4818;50.860;4.648;2023-10-31T03:26:54;6.53;;;4.13;;
9559;SDS011;4818;50.860;4.648;2023-10-31T03:29:20;5.03;;;3.88;;
9559;SDS011;4818;50.860;4.648;2023-10-31T03:31:46;7.00;;;3.67;;
9559;SDS011;4818;50.860;4.648;2023-10-31T03:34:13;8.43;;;4.38;;
9559;SDS011;4818;50.860;4.648;2023-10-31T03:36:39;6.60;;;3.92;;
9559;SDS011;4818;50.860;4.648;2023-10-31T03:39:05;7.45;;;4.70;;
9559;SDS011;4818;50.860;4.648;2023-10-31T03:41:32;5.20;;;3.47;;
9559;SDS011;4818;50.860;4.648;2023-10-31T03:43:58;7.85;;;4.72;;
9559;SDS011;4818;50.860;4.648;2023-10-31T03:46:24;6.03;;;3.97;;
9559;SDS011;4818;50.860;4.648;2023-10-31T03:48:51;5.72;;;4.20;;
9559;SDS011;4818;50.860;4.648;2023-10-31T03:51:17;6.47;;;5.07;;
9559;SDS011;4818;50.860;4.648;2023-10-31T03:53:43;6.07;;;4.03;;
9559;SDS011;4818;50.860;4.648;2023-10-31T03:56:10;6.32;;;4.07;;
9559;SDS011;4818;50.860;4.648;2023-10-31T03:58:36;5.63;;;3.63;;
9559;SDS011;4818;50.860;4.648;2023-10-31T04:01:02;5.30;;;3.97;;
9559;SDS011;4818;50.860;4.648;2023-10-31T04:03:29;6.25;;;3.67;;
9559;SDS011;4818;50.860;4.648;2023-10-31T04:05:55;6.70;;;4.28;;
9559;SDS011;4818;50.860;4.648;2023-10-31T04:08:21;7.18;;;4.47;;
9559;SDS011;4818;50.860;4.648;2023-10-31T04:10:47;6.03;;;4.40;;
9559;SDS011;4818;50.860;4.648;2023-10-31T04:13:14;5.55;;;4.30;;
9559;SDS011;4818;50.860;4.648;2023-10-31T04:15:40;5.03;;;3.75;;
9559;SDS011;4818;50.860;4.648;2023-10-31T04:18:07;7.20;;;4.70;;
9559;SDS011;4818;50.860;4.648;2023-10-31T04:20:34;8.32;;;4.28;;
9559;SDS011;4818;50.860;4.648;2023-10-31T04:23:00;8.00;;;4.40;;
9559;SDS011;4818;50.860;4.648;2023-10-31T04:25:26;9.30;;;4.57;;
9559;SDS011;4818;50.860;4.648;2023-10-31T04:27:54;10.55;;;4.45;;
9559;SDS011;4818;50.860;4.648;2023-10-31T04:30:21;6.07;;;4.03;;
9559;SDS011;4818;50.860;4.648;2023-10-31T04:32:55;8.05;;;4.25;;
9559;SDS011;4818;50.860;4.648;2023-10-31T04:35:23;8.05;;;5.85;;
9559;SDS011;4818;50.860;4.648;2023-10-31T04:37:50;10.02;;;6.13;;
9559;SDS011;4818;50.860;4.648;2023-10-31T04:40:17;11.00;;;6.13;;
9559;SDS011;4818;50.860;4.648;2023-10-31T04:42:45;7.63;;;5.78;;
9559;SDS011;4818;50.860;4.648;2023-10-31T04:45:13;8.70;;;6.15;;
9559;SDS011;4818;50.860;4.648;2023-10-31T04:47:40;11.23;;;6.68;;
9559;SDS011;4818;50.860;4.648;2023-10-31T04:50:06;9.48;;;6.20;;
9559;SDS011;4818;50.860;4.648;2023-10-31T04:52:32;10.90;;;6.78;;
9559;SDS011;4818;50.860;4.648;2023-10-31T04:54:59;11.05;;;6.78;;
9559;SDS011;4818;50.860;4.648;2023-10-31T04:57:26;11.60;;;6.25;;
9559;SDS011;4818;50.860;4.648;2023-10-31T04:59:52;9.15;;;6.32;;
9559;SDS011;4818;50.860;4.648;2023-10-31T05:02:22;11.75;;;6.57;;
9559;SDS011;4818;50.860;4.648;2023-10-31T05:04:49;11.45;;;6.63;;
9559;SDS011;4818;50.860;4.648;2023-10-31T05:07:18;14.00;;;7.05;;
9559;SDS011;4818;50.860;4.648;2023-10-31T05:09:46;9.95;;;6.90;;
9559;SDS011;4818;50.860;4.648;2023-10-31T05:12:12;16.95;;;8.07;;
9559;SDS011;4818;50.860;4.648;2023-10-31T05:14:39;11.43;;;7.13;;
9559;SDS011;4818;50.860;4.648;2023-10-31T05:17:06;16.17;;;8.70;;
9559;SDS011;4818;50.860;4.648;2023-10-31T05:19:32;12.55;;;7.50;;
9559;SDS011;4818;50.860;4.648;2023-10-31T05:22:00;14.82;;;8.68;;
9559;SDS011;4818;50.860;4.648;2023-10-31T05:24:26;14.18;;;8.85;;
9559;SDS011;4818;50.860;4.648;2023-10-31T05:26:52;14.18;;;8.02;;
9559;SDS011;4818;50.860;4.648;2023-10-31T05:29:19;17.92;;;8.93;;
9559;SDS011;4818;50.860;4.648;2023-10-31T05:31:45;11.38;;;7.65;;
9559;SDS011;4818;50.860;4.648;2023-10-31T05:34:12;12.68;;;7.60;;
9559;SDS011;4818;50.860;4.648;2023-10-31T05:36:39;19.38;;;8.48;;
9559;SDS011;4818;50.860;4.648;2023-10-31T05:39:05;18.35;;;9.27;;
9559;SDS011;4818;50.860;4.648;2023-10-31T05:41:34;16.30;;;8.70;;
9559;SDS011;4818;50.860;4.648;2023-10-31T05:44:00;15.15;;;9.10;;
9559;SDS011;4818;50.860;4.648;2023-10-31T05:46:26;13.38;;;8.13;;
9559;SDS011;4818;50.860;4.648;2023-10-31T05:48:53;17.95;;;8.82;;
9559;SDS011;4818;50.860;4.648;2023-10-31T05:51:19;14.13;;;8.52;;
9559;SDS011;4818;50.860;4.648;2023-10-31T05:53:46;14.18;;;8.90;;
9559;SDS011;4818;50.860;4.648;2023-10-31T05:56:13;18.85;;;9.70;;
9559;SDS011;4818;50.860;4.648;2023-10-31T05:58:40;14.85;;;8.70;;
9559;SDS011;4818;50.860;4.648;2023-10-31T06:01:06;13.77;;;9.10;;
9559;SDS011;4818;50.860;4.648;2023-10-31T06:03:36;15.57;;;8.57;;
9559;SDS011;4818;50.860;4.648;2023-10-31T06:06:04;17.40;;;9.18;;
9559;SDS011;4818;50.860;4.648;2023-10-31T06:08:30;13.65;;;8.52;;
9559;SDS011;4818;50.860;4.648;2023-10-31T06:11:01;12.88;;;8.50;;
9559;SDS011;4818;50.860;4.648;2023-10-31T06:13:27;13.55;;;7.32;;
9559;SDS011;4818;50.860;4.648;2023-10-31T06:15:57;11.23;;;7.57;;
9559;SDS011;4818;50.860;4.648;2023-10-31T06:18:25;10.18;;;6.80;;
9559;SDS011;4818;50.860;4.648;2023-10-31T06:20:52;11.50;;;7.82;;
9559;SDS011;4818;50.860;4.648;2023-10-31T06:23:18;10.45;;;7.00;;
9559;SDS011;4818;50.860;4.648;2023-10-31T06:25:46;9.90;;;6.57;;
9559;SDS011;4818;50.860;4.648;2023-10-31T06:28:13;8.35;;;6.78;;
9559;SDS011;4818;50.860;4.648;2023-10-31T06:30:39;11.88;;;6.88;;
9559;SDS011;4818;50.860;4.648;2023-10-31T06:33:16;10.20;;;7.30;;
9559;SDS011;4818;50.860;4.648;2023-10-31T06:35:42;13.07;;;6.35;;
9559;SDS011;4818;50.860;4.648;2023-10-31T06:38:10;11.57;;;6.80;;
9559;SDS011;4818;50.860;4.648;2023-10-31T06:40:36;11.38;;;5.97;;
9559;SDS011;4818;50.860;4.648;2023-10-31T06:43:04;11.32;;;5.90;;
9559;SDS011;4818;50.860;4.648;2023-10-31T06:45:30;11.35;;;6.38;;
9559;SDS011;4818;50.860;4.648;2023-10-31T06:47:58;10.35;;;5.75;;
9559;SDS011;4818;50.860;4.648;2023-10-31T06:50:25;11.13;;;5.80;;
9559;SDS011;4818;50.860;4.648;2023-10-31T06:52:54;10.05;;;5.93;;
9559;SDS011;4818;50.860;4.648;2023-10-31T06:55:20;8.90;;;6.18;;
9559;SDS011;4818;50.860;4.648;2023-10-31T06:57:47;8.75;;;5.70;;
9559;SDS011;4818;50.860;4.648;2023-10-31T07:00:13;8.02;;;5.63;;
9559;SDS011;4818;50.860;4.648;2023-10-31T07:02:40;10.02;;;5.82;;
9559;SDS011;4818;50.860;4.648;2023-10-31T07:05:06;10.82;;;5.75;;
9559;SDS011;4818;50.860;4.648;2023-10-31T07:07:32;11.63;;;5.30;;
9559;SDS011;4818;50.860;4.648;2023-10-31T07:09:59;10.38;;;5.57;;
9559;SDS011;4818;50.860;4.648;2023-10-31T07:12:25;5.68;;;4.15;;
9559;SDS011;4818;50.860;4.648;2023-10-31T07:14:52;8.27;;;5.40;;
9559;SDS011;4818;50.860;4.648;2023-10-31T07:17:18;12.27;;;5.18;;
9559;SDS011;4818;50.860;4.648;2023-10-31T07:19:44;10.02;;;4.80;;
9559;SDS011;4818;50.860;4.648;2023-10-31T07:22:10;8.63;;;4.65;;
9559;SDS011;4818;50.860;4.648;2023-10-31T07:24:37;9.02;;;5.43;;
9559;SDS011;4818;50.860;4.648;2023-10-31T07:27:03;8.52;;;4.95;;
9559;SDS011;4818;50.860;4.648;2023-10-31T07:29:30;8.15;;;4.53;;
9559;SDS011;4818;50.860;4.648;2023-10-31T07:31:56;9.25;;;5.18;;
9559;SDS011;4818;50.860;4.648;2023-10-31T07:34:22;9.43;;;5.38;;
9559;SDS011;4818;50.860;4.648;2023-10-31T07:36:49;9.73;;;5.13;;
9559;SDS011;4818;50.860;4.648;2023-10-31T07:39:15;8.95;;;5.28;;
9559;SDS011;4818;50.860;4.648;2023-10-31T07:41:41;7.68;;;5.30;;
9559;SDS011;4818;50.860;4.648;2023-10-31T07:44:08;7.63;;;4.88;;
9559;SDS011;4818;50.860;4.648;2023-10-31T07:46:34;9.30;;;4.93;;
9559;SDS011;4818;50.860;4.648;2023-10-31T07:49:01;8.40;;;4.03;;
9559;SDS011;4818;50.860;4.648;2023-10-31T07:51:27;6.00;;;3.95;;
9559;SDS011;4818;50.860;4.648;2023-10-31T07:53:53;8.43;;;4.13;;
9559;SDS011;4818;50.860;4.648;2023-10-31T07:56:20;5.18;;;3.65;;
9559;SDS011;4818;50.860;4.648;2023-10-31T07:58:51;7.82;;;4.55;;
9559;SDS011;4818;50.860;4.648;2023-10-31T08:01:18;9.23;;;4.68;;
9559;SDS011;4818;50.860;4.648;2023-10-31T08:03:47;6.78;;;4.25;;
9559;SDS011;4818;50.860;4.648;2023-10-31T08:06:14;7.93;;;3.85;;
9559;SDS011;4818;50.860;4.648;2023-10-31T08:08:40;5.78;;;3.78;;
9559;SDS011;4818;50.860;4.648;2023-10-31T08:11:07;5.32;;;2.38;;
9559;SDS011;4818;50.860;4.648;2023-10-31T08:13:35;3.95;;;2.13;;
9559;SDS011;4818;50.860;4.648;2023-10-31T08:16:02;5.15;;;2.50;;
9559;SDS011;4818;50.860;4.648;2023-10-31T08:18:28;3.35;;;2.17;;
9559;SDS011;4818;50.860;4.648;2023-10-31T08:20:55;4.25;;;1.92;;
9559;SDS011;4818;50.860;4.648;2023-10-31T08:23:21;2.78;;;1.73;;
9559;SDS011;4818;50.860;4.648;2023-10-31T08:25:47;4.07;;;1.92;;
9559;SDS011;4818;50.860;4.648;2023-10-31T08:28:15;5.22;;;2.50;;
9559;SDS011;4818;50.860;4.648;2023-10-31T08:30:42;3.78;;;2.47;;
9559;SDS011;4818;50.860;4.648;2023-10-31T08:33:08;4.97;;;2.65;;
9559;SDS011;4818;50.860;4.648;2023-10-31T08:35:34;4.03;;;2.22;;
9559;SDS011;4818;50.860;4.648;2023-10-31T08:38:00;6.03;;;2.20;;
9559;SDS011;4818;50.860;4.648;2023-10-31T08:40:27;7.03;;;2.40;;
9559;SDS011;4818;50.860;4.648;2023-10-31T08:42:53;7.57;;;2.75;;
9559;SDS011;4818;50.860;4.648;2023-10-31T08:45:20;5.45;;;2.88;;
9559;SDS011;4818;50.860;4.648;2023-10-31T08:47:47;5.47;;;2.70;;
9559;SDS011;4818;50.860;4.648;2023-10-31T08:50:13;4.32;;;2.28;;
9559;SDS011;4818;50.860;4.648;2023-10-31T08:52:40;4.85;;;2.67;;
9559;SDS011;4818;50.860;4.648;2023-10-31T08:55:06;6.63;;;2.65;;
9559;SDS011;4818;50.860;4.648;2023-10-31T08:57:33;4.47;;;2.40;;
9559;SDS011;4818;50.860;4.648;2023-10-31T08:59:59;3.53;;;2.45;;
9559;SDS011;4818;50.860;4.648;2023-10-31T09:02:26;9.50;;;3.05;;
9559;SDS011;4818;50.860;4.648;2023-10-31T09:04:52;5.30;;;2.63;;
9559;SDS011;4818;50.860;4.648;2023-10-31T09:07:19;7.63;;;4.10;;
9559;SDS011;4818;50.860;4.648;2023-10-31T09:09:45;8.43;;;2.95;;
9559;SDS011;4818;50.860;4.648;2023-10-31T09:12:12;9.18;;;3.80;;
9559;SDS011;4818;50.860;4.648;2023-10-31T09:14:38;6.13;;;3.40;;
9559;SDS011;4818;50.860;4.648;2023-10-31T09:17:06;8.40;;;3.15;;
9559;SDS011;4818;50.860;4.648;2023-10-31T09:19:33;5.63;;;3.08;;
9559;SDS011;4818;50.860;4.648;2023-10-31T09:21:59;5.68;;;2.50;;
9559;SDS011;4818;50.860;4.648;2023-10-31T09:24:25;6.60;;;2.40;;
9559;SDS011;4818;50.860;4.648;2023-10-31T09:26:51;4.35;;;1.77;;
9559;SDS011;4818;50.860;4.648;2023-10-31T09:29:17;11.82;;;2.28;;
9559;SDS011;4818;50.860;4.648;2023-10-31T09:31:44;4.07;;;2.08;;
9559;SDS011;4818;50.860;4.648;2023-10-31T09:34:10;2.83;;;1.52;;
9559;SDS011;4818;50.860;4.648;2023-10-31T09:36:39;3.60;;;2.22;;
9559;SDS011;4818;50.860;4.648;2023-10-31T09:39:05;8.45;;;2.72;;
9559;SDS011;4818;50.860;4.648;2023-10-31T09:41:31;8.05;;;1.83;;
9559;SDS011;4818;50.860;4.648;2023-10-31T09:43:58;4.07;;;1.42;;
9559;SDS011;4818;50.860;4.648;2023-10-31T09:46:24;9.15;;;2.00;;
9559;SDS011;4818;50.860;4.648;2023-10-31T09:48:50;4.63;;;1.75;;
9559;SDS011;4818;50.860;4.648;2023-10-31T09:51:17;6.55;;;2.00;;
9559;SDS011;4818;50.860;4.648;2023-10-31T09:53:44;5.85;;;1.50;;
9559;SDS011;4818;50.860;4.648;2023-10-31T09:56:11;8.57;;;1.27;;
9559;SDS011;4818;50.860;4.648;2023-10-31T09:58:37;5.10;;;1.13;;
9559;SDS011;4818;50.860;4.648;2023-10-31T10:01:04;6.45;;;1.52;;
9559;SDS011;4818;50.860;4.648;2023-10-31T10:03:31;6.13;;;0.77;;
9559;SDS011;4818;50.860;4.648;2023-10-31T10:05:58;3.80;;;0.80;;
9559;SDS011;4818;50.860;4.648;2023-10-31T10:08:24;7.07;;;1.25;;
9559;SDS011;4818;50.860;4.648;2023-10-31T10:10:51;4.13;;;1.65;;
9559;SDS011;4818;50.860;4.648;2023-10-31T10:13:17;9.43;;;1.27;;
9559;SDS011;4818;50.860;4.648;2023-10-31T10:15:44;3.55;;;1.05;;
9559;SDS011;4818;50.860;4.648;2023-10-31T10:18:20;4.80;;;1.20;;
9559;SDS011;4818;50.860;4.648;2023-10-31T10:23:22;7.65;;;1.02;;
9559;SDS011;4818;50.860;4.648;2023-10-31T10:25:52;6.30;;;0.95;;
9559;SDS011;4818;50.860;4.648;2023-10-31T10:28:18;3.88;;;1.02;;
9559;SDS011;4818;50.860;4.648;2023-10-31T10:30:45;4.55;;;1.33;;
9559;SDS011;4818;50.860;4.648;2023-10-31T10:33:12;2.22;;;1.08;;
9559;SDS011;4818;50.860;4.648;2023-10-31T10:35:39;7.45;;;0.75;;
9559;SDS011;4818;50.860;4.648;2023-10-31T10:38:18;9.60;;;1.02;;
9559;SDS011;4818;50.860;4.648;2023-10-31T10:40:45;5.90;;;1.00;;
9559;SDS011;4818;50.860;4.648;2023-10-31T10:43:12;4.85;;;1.25;;
9559;SDS011;4818;50.860;4.648;2023-10-31T10:45:41;5.47;;;1.23;;
9559;SDS011;4818;50.860;4.648;2023-10-31T10:50:35;4.22;;;1.10;;
9559;SDS011;4818;50.860;4.648;2023-10-31T10:53:13;4.88;;;1.23;;
9559;SDS011;4818;50.860;4.648;2023-10-31T10:55:44;4.45;;;1.13;;
9559;SDS011;4818;50.860;4.648;2023-10-31T10:58:27;3.90;;;1.63;;
9559;SDS011;4818;50.860;4.648;2023-10-31T11:00:56;6.45;;;1.67;;
9559;SDS011;4818;50.860;4.648;2023-10-31T11:03:24;7.40;;;1.90;;
9559;SDS011;4818;50.860;4.648;2023-10-31T11:05:50;7.50;;;1.02;;
9559;SDS011;4818;50.860;4.648;2023-10-31T11:08:16;6.85;;;1.23;;
9559;SDS011;4818;50.860;4.648;2023-10-31T11:10:43;8.85;;;1.80;;
9559;SDS011;4818;50.860;4.648;2023-10-31T11:13:10;6.93;;;1.92;;
9559;SDS011;4818;50.860;4.648;2023-10-31T11:15:37;5.00;;;2.00;;
9559;SDS011;4818;50.860;4.648;2023-10-31T11:18:03;8.55;;;2.17;;
9559;SDS011;4818;50.860;4.648;2023-10-31T11:20:30;10.40;;;2.08;;
9559;SDS011;4818;50.860;4.648;2023-10-31T11:22:57;12.23;;;3.03;;
9559;SDS011;4818;50.860;4.648;2023-10-31T11:25:23;4.80;;;1.98;;
9559;SDS011;4818;50.860;4.648;2023-10-31T11:27:50;6.57;;;1.92;;
9559;SDS011;4818;50.860;4.648;2023-10-31T11:30:20;7.93;;;3.25;;
9559;SDS011;4818;50.860;4.648;2023-10-31T11:32:53;8.07;;;2.88;;
9559;SDS011;4818;50.860;4.648;2023-10-31T11:35:21;12.90;;;3.55;;
9559;SDS011;4818;50.860;4.648;2023-10-31T11:37:49;7.18;;;2.50;;
9559;SDS011;4818;50.860;4.648;2023-10-31T11:40:16;7.25;;;2.78;;
9559;SDS011;4818;50.860;4.648;2023-10-31T11:42:49;14.18;;;3.63;;
9559;SDS011;4818;50.860;4.648;2023-10-31T11:45:25;11.52;;;2.63;;
9559;SDS011;4818;50.860;4.648;2023-10-31T11:47:52;5.03;;;2.60;;
9559;SDS011;4818;50.860;4.648;2023-10-31T11:50:18;6.57;;;2.00;;
9559;SDS011;4818;50.860;4.648;2023-10-31T11:52:45;4.32;;;1.98;;
9559;SDS011;4818;50.860;4.648;2023-10-31T11:55:23;9.02;;;3.03;;
9559;SDS011;4818;50.860;4.648;2023-10-31T11:57:50;7.38;;;2.45;;
9559;SDS011;4818;50.860;4.648;2023-10-31T12:00:20;6.72;;;2.50;;
9559;SDS011;4818;50.860;4.648;2023-10-31T12:03:00;9.35;;;1.80;;
9559;SDS011;4818;50.860;4.648;2023-10-31T12:05:27;9.90;;;2.28;;
9559;SDS011;4818;50.860;4.648;2023-10-31T12:07:53;7.00;;;2.63;;
9559;SDS011;4818;50.860;4.648;2023-10-31T12:10:23;7.13;;;2.60;;
9559;SDS011;4818;50.860;4.648;2023-10-31T12:12:50;9.70;;;2.60;;
9559;SDS011;4818;50.860;4.648;2023-10-31T12:15:17;11.73;;;3.35;;
9559;SDS011;4818;50.860;4.648;2023-10-31T12:17:43;5.25;;;1.83;;
9559;SDS011;4818;50.860;4.648;2023-10-31T12:20:09;7.32;;;2.40;;
9559;SDS011;4818;50.860;4.648;2023-10-31T12:22:36;4.28;;;1.45;;
9559;SDS011;4818;50.860;4.648;2023-10-31T12:25:02;6.35;;;2.55;;
9559;SDS011;4818;50.860;4.648;2023-10-31T12:27:42;7.05;;;1.92;;
9559;SDS011;4818;50.860;4.648;2023-10-31T12:30:09;7.20;;;2.10;;
9559;SDS011;4818;50.860;4.648;2023-10-31T12:32:36;8.32;;;2.70;;
9559;SDS011;4818;50.860;4.648;2023-10-31T12:35:02;6.10;;;2.13;;
9559;SDS011;4818;50.860;4.648;2023-10-31T12:37:29;10.65;;;2.20;;
9559;SDS011;4818;50.860;4.648;2023-10-31T12:39:56;6.22;;;2.40;;
9559;SDS011;4818;50.860;4.648;2023-10-31T12:42:23;6.40;;;1.83;;
9559;SDS011;4818;50.860;4.648;2023-10-31T12:44:54;4.97;;;2.15;;
9559;SDS011;4818;50.860;4.648;2023-10-31T12:47:21;4.07;;;1.60;;
9559;SDS011;4818;50.860;4.648;2023-10-31T12:49:48;5.63;;;1.67;;
9559;SDS011;4818;50.860;4.648;2023-10-31T12:52:14;3.10;;;1.20;;
9559;SDS011;4818;50.860;4.648;2023-10-31T12:54:40;4.18;;;1.05;;
9559;SDS011;4818;50.860;4.648;2023-10-31T12:57:07;8.25;;;1.35;;
9559;SDS011;4818;50.860;4.648;2023-10-31T12:59:34;2.60;;;1.05;;
9559;SDS011;4818;50.860;4.648;2023-10-31T13:02:03;7.65;;;1.77;;
9559;SDS011;4818;50.860;4.648;2023-10-31T13:04:31;4.18;;;1.15;;
9559;SDS011;4818;50.860;4.648;2023-10-31T13:09:28;4.63;;;1.33;;
9559;SDS011;4818;50.860;4.648;2023-10-31T13:11:56;3.92;;;1.05;;
9559;SDS011;4818;50.860;4.648;2023-10-31T13:14:23;3.10;;;1.27;;
9559;SDS011;4818;50.860;4.648;2023-10-31T13:16:49;2.22;;;0.75;;
9559;SDS011;4818;50.860;4.648;2023-10-31T13:19:15;2.45;;;0.65;;
9559;SDS011;4818;50.860;4.648;2023-10-31T13:21:42;4.35;;;1.45;;
9559;SDS011;4818;50.860;4.648;2023-10-31T13:24:08;8.60;;;1.30;;
9559;SDS011;4818;50.860;4.648;2023-10-31T13:26:34;3.53;;;0.90;;
9559;SDS011;4818;50.860;4.648;2023-10-31T13:29:01;3.97;;;0.88;;
9559;SDS011;4818;50.860;4.648;2023-10-31T13:31:27;1.88;;;0.85;;
9559;SDS011;4818;50.860;4.648;2023-10-31T13:33:54;4.95;;;0.90;;
9559;SDS011;4818;50.860;4.648;2023-10-31T13:36:20;3.38;;;0.70;;
9559;SDS011;4818;50.860;4.648;2023-10-31T13:38:47;6.10;;;1.13;;
9559;SDS011;4818;50.860;4.648;2023-10-31T13:41:14;2.47;;;0.55;;
9559;SDS011;4818;50.860;4.648;2023-10-31T13:43:40;1.80;;;0.43;;
9559;SDS011;4818;50.860;4.648;2023-10-31T13:46:07;3.05;;;0.68;;
9559;SDS011;4818;50.860;4.648;2023-10-31T13:48:33;1.85;;;0.55;;
9559;SDS011;4818;50.860;4.648;2023-10-31T13:50:59;1.50;;;0.45;;
9559;SDS011;4818;50.860;4.648;2023-10-31T13:53:27;5.05;;;0.70;;
9559;SDS011;4818;50.860;4.648;2023-10-31T13:55:53;1.80;;;0.68;;
9559;SDS011;4818;50.860;4.648;2023-10-31T13:58:19;3.67;;;1.02;;
9559;SDS011;4818;50.860;4.648;2023-10-31T14:00:48;4.53;;;1.53;;
9559;SDS011;4818;50.860;4.648;2023-10-31T14:03:15;4.75;;;1.73;;
9559;SDS011;4818;50.860;4.648;2023-10-31T14:05:41;4.45;;;1.58;;
9559;SDS011;4818;50.860;4.648;2023-10-31T14:08:08;4.45;;;1.95;;
9559;SDS011;4818;50.860;4.648;2023-10-31T14:10:34;3.47;;;1.77;;
9559;SDS011;4818;50.860;4.648;2023-10-31T14:13:00;3.45;;;1.48;;
9559;SDS011;4818;50.860;4.648;2023-10-31T14:15:27;5.55;;;2.72;;
9559;SDS011;4818;50.860;4.648;2023-10-31T14:17:53;6.32;;;2.05;;
9559;SDS011;4818;50.860;4.648;2023-10-31T14:20:19;3.40;;;1.70;;
9559;SDS011;4818;50.860;4.648;2023-10-31T14:22:47;6.13;;;1.73;;
9559;SDS011;4818;50.860;4.648;2023-10-31T14:25:14;3.88;;;2.38;;
9559;SDS011;4818;50.860;4.648;2023-10-31T14:27:40;6.32;;;2.30;;
9559;SDS011;4818;50.860;4.648;2023-10-31T14:30:08;6.75;;;1.65;;
9559;SDS011;4818;50.860;4.648;2023-10-31T14:32:35;7.32;;;2.35;;
9559;SDS011;4818;50.860;4.648;2023-10-31T14:35:01;5.40;;;2.08;;
9559;SDS011;4818;50.860;4.648;2023-10-31T14:37:27;4.07;;;1.85;;
9559;SDS011;4818;50.860;4.648;2023-10-31T14:39:54;3.38;;;1.40;;
9559;SDS011;4818;50.860;4.648;2023-10-31T14:42:20;4.85;;;1.60;;
9559;SDS011;4818;50.860;4.648;2023-10-31T14:44:47;3.65;;;1.75;;
9559;SDS011;4818;50.860;4.648;2023-10-31T14:47:13;5.30;;;2.17;;
9559;SDS011;4818;50.860;4.648;2023-10-31T14:49:39;5.38;;;3.10;;
9559;SDS011;4818;50.860;4.648;2023-10-31T14:52:05;7.53;;;3.67;;
9559;SDS011;4818;50.860;4.648;2023-10-31T14:54:33;7.53;;;3.95;;
9559;SDS011;4818;50.860;4.648;2023-10-31T14:57:01;7.80;;;4.20;;
9559;SDS011;4818;50.860;4.648;2023-10-31T14:59:28;9.10;;;4.05;;
9559;SDS011;4818;50.860;4.648;2023-10-31T15:01:54;7.10;;;4.10;;
9559;SDS011;4818;50.860;4.648;2023-10-31T15:04:20;9.75;;;3.50;;
9559;SDS011;4818;50.860;4.648;2023-10-31T15:06:47;9.98;;;4.22;;
9559;SDS011;4818;50.860;4.648;2023-10-31T15:09:13;5.88;;;3.15;;
9559;SDS011;4818;50.860;4.648;2023-10-31T15:11:39;11.20;;;3.45;;
9559;SDS011;4818;50.860;4.648;2023-10-31T15:14:06;9.93;;;3.75;;
9559;SDS011;4818;50.860;4.648;2023-10-31T15:16:32;12.15;;;4.35;;